Time;durP1;ratioP1;P1;durP2;ratioP2;P2;SDS_P1;SDS_P2;PMS_P1;PMS_P2;Temp;Humidity;BMP_temperature;BMP_pressure;BME280_temperature;BME280_humidity;BME280_pressure;Samples;Min_cycle;Max_cycle;Signal;HPM_P1;HPM_P2
2022/10/08 00:00:58;;;;;;;14.05;7.20;;;;;;;12.30;100.00;96126.34;5071086;28;25011;-77
2022/10/08 00:03:27;;;;;;;9.03;6.60;;;;;;;12.23;100.00;96125.06;5084587;28;24465;-76
2022/10/08 00:05:57;;;;;;;9.48;6.18;;;;;;;12.26;100.00;96133.50;5071232;28;24427;-76
2022/10/08 00:08:24;;;;;;;7.18;5.85;;;;;;;12.32;100.00;96135.72;5084994;28;24998;-76
2022/10/08 00:10:57;;;;;;;9.57;5.63;;;;;;;12.38;100.00;96126.69;5070721;28;24435;-77
2022/10/08 00:13:25;;;;;;;10.57;5.70;;;;;;;12.39;100.00;96130.97;5084302;28;25003;-76
2022/10/08 00:15:52;;;;;;;11.13;6.25;;;;;;;12.16;100.00;96131.56;5070289;28;24974;-76
2022/10/08 00:18:19;;;;;;;10.00;6.47;;;;;;;12.04;100.00;96134.00;5084397;28;24423;-76
2022/10/08 00:20:46;;;;;;;6.88;5.88;;;;;;;11.98;100.00;96138.78;5078418;28;24434;-76
2022/10/08 00:23:12;;;;;;;9.88;5.78;;;;;;;11.86;100.00;96128.22;5083688;28;25100;-76
2022/10/08 00:25:41;;;;;;;8.65;5.90;;;;;;;11.85;100.00;96138.69;5069345;28;24439;-76
2022/10/08 00:28:09;;;;;;;6.65;5.38;;;;;;;11.90;100.00;96138.41;5077910;28;24972;-76
2022/10/08 00:30:36;;;;;;;6.63;4.88;;;;;;;11.98;100.00;96131.00;5080054;28;24437;-76
2022/10/08 00:33:03;;;;;;;10.55;5.78;;;;;;;12.07;100.00;96128.63;5087279;28;24437;-76
2022/10/08 00:35:30;;;;;;;9.23;5.05;;;;;;;12.13;100.00;96122.22;5072826;28;24437;-76
2022/10/08 00:37:56;;;;;;;9.48;5.53;;;;;;;12.04;100.00;96121.03;5086917;28;24430;-76
2022/10/08 00:40:24;;;;;;;7.45;5.40;;;;;;;11.97;100.00;96119.75;5073151;28;24745;-76
2022/10/08 00:42:51;;;;;;;6.80;5.20;;;;;;;12.06;100.00;96118.34;5085422;28;25106;-76
2022/10/08 00:45:19;;;;;;;7.23;4.60;;;;;;;12.09;100.00;96120.75;5080360;28;24905;-76
2022/10/08 00:47:48;;;;;;;7.93;4.80;;;;;;;12.13;100.00;96118.81;5078014;28;24441;-76
2022/10/08 00:50:19;;;;;;;7.90;5.32;;;;;;;12.15;100.00;96119.53;5081903;28;24531;-76
2022/10/08 00:52:48;;;;;;;10.07;5.43;;;;;;;12.14;100.00;96116.09;5071562;28;24438;-76
2022/10/08 00:55:17;;;;;;;8.50;5.18;;;;;;;12.17;100.00;96120.28;5082566;28;24428;-76
2022/10/08 00:57:44;;;;;;;8.10;4.78;;;;;;;12.19;100.00;96114.03;5071863;28;24434;-76
2022/10/08 01:00:14;;;;;;;6.72;4.68;;;;;;;12.22;100.00;96116.44;5082732;28;24517;-76
2022/10/08 01:02:42;;;;;;;6.55;4.95;;;;;;;12.24;100.00;96116.38;5083232;28;24469;-76
2022/10/08 01:05:11;;;;;;;9.48;5.60;;;;;;;12.15;100.00;96112.56;5082077;28;24430;-77
2022/10/08 01:07:45;;;;;;;11.98;5.40;;;;;;;12.18;100.00;96116.75;5084984;28;25076;-77
2022/10/08 01:10:25;;;;;;;8.45;5.35;;;;;;;12.21;100.00;96112.19;5083524;28;24501;-77
2022/10/08 01:13:10;;;;;;;9.52;5.78;;;;;;;12.10;100.00;96107.66;5086536;28;24441;-77
2022/10/08 01:15:43;;;;;;;6.63;4.97;;;;;;;12.20;100.00;96112.28;5087425;28;24960;-77
2022/10/08 01:18:21;;;;;;;8.60;5.47;;;;;;;12.21;100.00;96107.00;5084548;28;24796;-77
2022/10/08 01:20:57;;;;;;;6.63;4.53;;;;;;;12.31;100.00;96108.06;5080217;28;24433;-76
2022/10/08 01:24:03;;;;;;;7.05;4.47;;;;;;;12.20;100.00;96107.06;5081131;28;24469;-76
2022/10/08 01:26:45;;;;;;;6.43;4.55;;;;;;;12.22;100.00;96103.47;5070262;28;24426;-77
2022/10/08 01:29:18;;;;;;;7.00;4.45;;;;;;;12.31;100.00;96107.22;5081221;28;24469;-77
2022/10/08 01:31:48;;;;;;;7.38;4.63;;;;;;;12.23;100.00;96099.91;5086350;28;24427;-77
2022/10/08 01:34:23;;;;;;;6.55;4.50;;;;;;;12.09;100.00;96100.00;5076647;28;24992;-77
2022/10/08 01:36:52;;;;;;;8.57;5.15;;;;;;;12.02;100.00;96101.31;5084906;28;24423;-77
2022/10/08 01:39:22;;;;;;;7.55;5.15;;;;;;;12.03;100.00;96097.78;5084057;28;24530;-77
2022/10/08 01:41:55;;;;;;;10.23;4.50;;;;;;;12.14;100.00;96095.34;5084828;28;24431;-76
2022/10/08 01:44:27;;;;;;;7.53;4.82;;;;;;;12.19;100.00;96093.25;5080761;28;24457;-76
2022/10/08 01:46:58;;;;;;;6.50;4.93;;;;;;;12.17;100.00;96096.91;5077024;28;24427;-77
2022/10/08 01:49:29;;;;;;;9.25;5.80;;;;;;;12.13;100.00;96104.06;5082204;28;24463;-76
2022/10/08 01:52:03;;;;;;;8.77;5.30;;;;;;;12.10;100.00;96104.25;5080972;28;24442;-76
2022/10/08 01:54:31;;;;;;;7.18;5.20;;;;;;;12.08;100.00;96104.31;5067291;28;25060;-76
2022/10/08 01:57:00;;;;;;;6.07;4.78;;;;;;;12.09;100.00;96087.00;5080316;28;24431;-76
2022/10/08 01:59:32;;;;;;;11.57;4.88;;;;;;;12.09;100.00;96090.44;5066834;28;24456;-76
2022/10/08 02:02:05;;;;;;;5.93;4.70;;;;;;;12.06;100.00;96095.81;5080597;28;24462;-76
2022/10/08 02:04:36;;;;;;;7.40;4.63;;;;;;;12.00;100.00;96095.38;5067541;28;24437;-76
2022/10/08 02:07:07;;;;;;;8.23;4.75;;;;;;;11.96;100.00;96088.72;5079893;28;24513;-76
2022/10/08 02:09:36;;;;;;;7.53;4.95;;;;;;;11.98;100.00;96086.88;5081894;28;24998;-76
2022/10/08 02:12:04;;;;;;;9.10;5.32;;;;;;;12.00;100.00;96088.41;5079073;28;24431;-76
2022/10/08 02:14:34;;;;;;;8.88;4.97;;;;;;;12.01;100.00;96078.84;5074448;28;24437;-76
2022/10/08 02:17:12;;;;;;;6.55;5.40;;;;;;;12.02;100.00;96078.78;5079317;28;24446;-76
2022/10/08 02:19:47;;;;;;;6.10;4.63;;;;;;;12.07;100.00;96073.28;5076277;28;25057;-76
2022/10/08 02:22:17;;;;;;;10.55;4.93;;;;;;;12.05;100.00;96080.31;5078522;28;24466;-76
2022/10/08 02:24:51;;;;;;;6.95;4.80;;;;;;;12.04;100.00;96076.06;5074730;28;24998;-76
2022/10/08 02:27:25;;;;;;;6.93;4.90;;;;;;;12.03;100.00;96082.19;5075301;28;24480;-76
2022/10/08 02:30:02;;;;;;;5.43;4.53;;;;;;;12.05;100.00;96080.31;5082279;28;24427;-77
2022/10/08 02:32:35;;;;;;;6.43;4.53;;;;;;;12.06;100.00;96082.00;5068517;28;24478;-77
2022/10/08 02:35:07;;;;;;;10.50;5.38;;;;;;;12.08;100.00;96072.34;5080282;28;24431;-76
2022/10/08 02:37:39;;;;;;;5.72;5.15;;;;;;;12.08;100.00;96074.94;5081561;28;24437;-77
2022/10/08 02:40:10;;;;;;;12.88;4.97;;;;;;;12.00;100.00;96070.25;5080342;28;24435;-76
2022/10/08 02:42:41;;;;;;;12.75;4.85;;;;;;;12.00;100.00;96072.84;5089013;22;24542;-73
2022/10/08 02:45:14;;;;;;;6.78;5.30;;;;;;;11.99;100.00;96073.78;5048909;28;24469;-73
2022/10/08 02:47:42;;;;;;;9.18;4.80;;;;;;;12.00;100.00;96074.59;5043173;28;24943;-74
2022/10/08 02:50:12;;;;;;;9.70;5.07;;;;;;;11.98;100.00;96084.28;5050432;28;24490;-73
2022/10/08 02:52:43;;;;;;;8.45;5.47;;;;;;;11.88;100.00;96081.41;5056642;28;24979;-73
2022/10/08 02:55:18;;;;;;;7.10;4.83;;;;;;;11.86;100.00;96078.91;5047808;28;24453;-73
2022/10/08 02:57:50;;;;;;;9.43;5.10;;;;;;;11.88;100.00;96080.56;5049607;28;24442;-73
2022/10/08 03:00:19;;;;;;;7.57;4.53;;;;;;;11.89;100.00;96079.63;5048069;28;24431;-73
2022/10/08 03:02:51;;;;;;;7.53;4.70;;;;;;;11.86;100.00;96081.53;5049176;28;24542;-71
2022/10/08 03:05:19;;;;;;;8.75;3.90;;;;;;;11.82;100.00;96086.94;5048237;28;24434;-73
2022/10/08 03:07:49;;;;;;;8.77;4.85;;;;;;;11.77;100.00;96084.63;5049434;28;24442;-73
2022/10/08 03:10:16;;;;;;;8.95;4.97;;;;;;;11.75;100.00;96080.47;5049320;28;24428;-74
2022/10/08 03:12:43;;;;;;;5.63;3.80;;;;;;;11.71;100.00;96079.81;5049145;28;24438;-73
2022/10/08 03:15:10;;;;;;;6.53;3.90;;;;;;;11.77;100.00;96086.41;5053904;28;24978;-74
2022/10/08 03:17:43;;;;;;;6.03;3.75;;;;;;;11.75;100.00;96093.44;5048938;28;25195;-74
2022/10/08 03:20:11;;;;;;;8.15;4.68;;;;;;;11.68;100.00;96093.00;5046921;28;24442;-74
2022/10/08 03:22:38;;;;;;;8.87;4.23;;;;;;;11.58;100.00;96094.50;5049025;28;24442;-73
2022/10/08 03:25:05;;;;;;;6.78;4.35;;;;;;;11.59;100.00;96094.38;5045438;28;24793;-73
2022/10/08 03:27:33;;;;;;;5.97;4.40;;;;;;;11.66;100.00;96094.84;5049085;28;24442;-73
2022/10/08 03:30:01;;;;;;;7.82;4.40;;;;;;;11.71;100.00;96097.16;5048826;28;24431;-73
2022/10/08 03:32:27;;;;;;;7.05;4.90;;;;;;;11.73;100.00;96098.75;5049903;28;24436;-73
2022/10/08 03:34:55;;;;;;;9.13;4.80;;;;;;;11.68;100.00;96102.53;5048242;28;24435;-73
2022/10/08 03:37:22;;;;;;;8.57;4.45;;;;;;;11.66;100.00;96109.59;5049172;28;24438;-71
2022/10/08 03:39:48;;;;;;;8.18;4.65;;;;;;;11.66;100.00;96110.41;5049167;28;24988;-74
2022/10/08 03:42:15;;;;;;;4.87;4.33;;;;;;;11.68;100.00;96108.56;5048933;28;24483;-72
2022/10/08 03:44:41;;;;;;;7.45;4.85;;;;;;;11.66;100.00;96105.22;5047748;28;24447;-73
2022/10/08 03:47:08;;;;;;;7.32;4.70;;;;;;;11.71;100.00;96108.38;5048985;28;24439;-73
2022/10/08 03:49:34;;;;;;;5.50;4.25;;;;;;;11.66;100.00;96110.41;5047884;28;24446;-72
2022/10/08 03:52:02;;;;;;;9.25;4.53;;;;;;;11.63;100.00;96110.59;5050657;28;24453;-73
2022/10/08 03:54:28;;;;;;;9.40;5.07;;;;;;;11.49;100.00;96110.63;5054137;28;25011;-73
2022/10/08 03:56:55;;;;;;;6.28;4.47;;;;;;;11.49;100.00;96113.19;5054539;28;24450;-73
2022/10/08 03:59:22;;;;;;;7.25;5.07;;;;;;;11.58;100.00;96107.47;5048734;28;24462;-73
2022/10/08 04:01:48;;;;;;;9.02;5.15;;;;;;;11.71;100.00;96112.72;5048757;28;24427;-73
2022/10/08 04:04:15;;;;;;;14.80;5.25;;;;;;;11.73;100.00;96123.84;5047355;28;24909;-72
2022/10/08 04:06:41;;;;;;;13.87;5.03;;;;;;;11.61;100.00;96121.09;5050797;28;24434;-73
2022/10/08 04:09:10;;;;;;;7.05;4.60;;;;;;;11.51;100.00;96119.97;5052387;28;24435;-73
2022/10/08 04:11:37;;;;;;;8.98;4.85;;;;;;;11.52;100.00;96118.22;5056296;28;24450;-72
2022/10/08 04:14:03;;;;;;;7.70;5.32;;;;;;;11.48;100.00;96122.75;5052891;28;24450;-73
2022/10/08 04:16:30;;;;;;;7.20;4.47;;;;;;;11.52;100.00;96124.22;5051940;28;25307;-73
2022/10/08 04:18:57;;;;;;;7.90;4.32;;;;;;;11.55;100.00;96128.41;5052591;28;24434;-73
2022/10/08 04:21:23;;;;;;;5.83;3.97;;;;;;;11.46;100.00;96123.75;5052090;28;24789;-73
2022/10/08 04:23:49;;;;;;;6.38;4.60;;;;;;;11.64;100.00;96122.63;5051758;28;24466;-73
2022/10/08 04:26:18;;;;;;;7.57;4.65;;;;;;;11.55;100.00;96125.81;5051638;28;24991;-73
2022/10/08 04:28:46;;;;;;;7.75;4.72;;;;;;;11.50;100.00;96127.88;5052228;28;24424;-73
2022/10/08 04:31:15;;;;;;;8.95;4.55;;;;;;;11.48;100.00;96129.69;5052025;28;24438;-73
2022/10/08 04:33:42;;;;;;;7.72;4.50;;;;;;;11.36;100.00;96128.69;5051669;28;24797;-72
2022/10/08 04:36:10;;;;;;;6.72;4.70;;;;;;;11.31;100.00;96125.50;5051637;28;24431;-73
2022/10/08 04:38:37;;;;;;;6.50;4.97;;;;;;;11.38;100.00;96129.41;5052071;28;24458;-73
2022/10/08 04:41:05;;;;;;;6.10;4.65;;;;;;;11.34;100.00;96126.16;5051663;28;24821;-72
2022/10/08 04:43:34;;;;;;;7.40;4.50;;;;;;;11.36;100.00;96126.94;5046123;28;24466;-73
2022/10/08 04:46:01;;;;;;;6.88;4.50;;;;;;;11.30;100.00;96134.22;5051592;28;24438;-72
2022/10/08 04:48:27;;;;;;;12.57;5.20;;;;;;;11.39;100.00;96136.28;5043759;28;24431;-73
2022/10/08 04:50:55;;;;;;;8.37;5.43;;;;;;;11.42;100.00;96137.84;5051643;28;24517;-73
2022/10/08 04:53:22;;;;;;;8.60;4.82;;;;;;;11.47;100.00;96144.44;5053731;28;24430;-73
2022/10/08 04:55:48;;;;;;;8.25;5.22;;;;;;;11.52;100.00;96136.38;5051217;28;24439;-73
2022/10/08 04:58:15;;;;;;;8.57;5.23;;;;;;;11.54;100.00;96142.31;5059873;28;24455;-73
2022/10/08 05:00:43;;;;;;;8.07;4.80;;;;;;;11.45;100.00;96142.84;5051646;28;24423;-73
2022/10/08 05:03:09;;;;;;;5.78;4.10;;;;;;;11.44;100.00;96154.16;5051299;28;24454;-73
2022/10/08 05:05:39;;;;;;;8.18;4.38;;;;;;;11.42;100.00;96158.59;5050849;28;24454;-73
2022/10/08 05:08:05;;;;;;;7.33;4.77;;;;;;;11.41;100.00;96155.16;5051343;28;24497;-73
2022/10/08 05:10:32;;;;;;;7.60;4.95;;;;;;;11.36;100.00;96152.84;5051112;28;24972;-73
2022/10/08 05:12:58;;;;;;;7.55;4.28;;;;;;;11.32;100.00;96161.75;5051433;28;24724;-73
2022/10/08 05:15:25;;;;;;;6.68;3.60;;;;;;;11.21;100.00;96156.38;5050387;28;24434;-72
2022/10/08 05:17:53;;;;;;;9.95;4.20;;;;;;;11.22;100.00;96158.03;5051909;28;24976;-73
2022/10/08 05:20:20;;;;;;;16.73;4.90;;;;;;;11.31;100.00;96152.31;5051734;28;24428;-73
2022/10/08 05:22:46;;;;;;;13.57;5.75;;;;;;;11.31;100.00;96157.50;5052317;28;24427;-73
2022/10/08 05:25:13;;;;;;;7.93;4.10;;;;;;;11.36;100.00;96157.22;5052056;28;24482;-72
2022/10/08 05:27:40;;;;;;;6.53;4.30;;;;;;;11.27;100.00;96155.16;5051033;28;24435;-73
2022/10/08 05:30:08;;;;;;;6.75;4.40;;;;;;;11.22;100.00;96155.44;5050522;28;24438;-73
2022/10/08 05:32:34;;;;;;;9.32;4.30;;;;;;;11.22;100.00;96165.81;5051182;28;24442;-73
2022/10/08 05:35:02;;;;;;;10.05;4.80;;;;;;;11.27;100.00;96168.97;5053239;28;24438;-73
2022/10/08 05:37:28;;;;;;;7.88;4.35;;;;;;;11.28;100.00;96168.03;5043357;28;24431;-73
2022/10/08 05:39:55;;;;;;;7.20;4.43;;;;;;;11.31;100.00;96167.88;5050406;28;24981;-73
2022/10/08 05:42:21;;;;;;;7.65;4.65;;;;;;;11.29;100.00;96172.28;5050653;28;24446;-72
2022/10/08 05:44:48;;;;;;;8.77;4.40;;;;;;;11.22;100.00;96168.41;5053834;28;25034;-72
2022/10/08 05:47:14;;;;;;;7.72;3.92;;;;;;;11.17;100.00;96172.19;5049308;28;24435;-73
2022/10/08 05:49:41;;;;;;;9.77;4.80;;;;;;;11.10;100.00;96174.31;5050286;28;24431;-73
2022/10/08 05:52:09;;;;;;;11.00;4.90;;;;;;;11.12;100.00;96172.44;5050751;28;24435;-73
2022/10/08 05:54:35;;;;;;;12.60;4.43;;;;;;;11.15;100.00;96174.84;5053146;28;24431;-73
2022/10/08 05:57:02;;;;;;;12.18;4.22;;;;;;;11.21;100.00;96179.69;5053627;28;24789;-71
2022/10/08 05:59:28;;;;;;;7.18;3.78;;;;;;;11.28;100.00;96186.19;5054779;28;24440;-73
2022/10/08 06:01:55;;;;;;;8.73;4.53;;;;;;;11.29;100.00;96189.63;5050406;28;24442;-73
2022/10/08 06:04:21;;;;;;;8.13;4.60;;;;;;;11.17;100.00;96196.34;5049552;28;24459;-73
2022/10/08 06:06:48;;;;;;;8.85;5.30;;;;;;;11.10;100.00;96197.63;5050569;28;24438;-73
2022/10/08 06:09:17;;;;;;;9.52;5.35;;;;;;;11.07;100.00;96198.63;5050076;28;24427;-73
2022/10/08 06:11:45;;;;;;;9.55;5.40;;;;;;;11.02;100.00;96200.69;5050497;28;24545;-72
2022/10/08 06:14:13;;;;;;;8.75;4.70;;;;;;;11.05;100.00;96205.69;5049271;28;24439;-73
2022/10/08 06:16:40;;;;;;;10.25;4.57;;;;;;;11.10;100.00;96208.00;5050034;28;24430;-73
2022/10/08 06:19:08;;;;;;;8.18;5.18;;;;;;;11.18;100.00;96197.19;5054984;28;24999;-73
2022/10/08 06:21:36;;;;;;;6.85;4.65;;;;;;;11.24;100.00;96208.03;5050253;28;24431;-73
2022/10/08 06:24:04;;;;;;;8.45;4.28;;;;;;;11.33;100.00;96198.88;5055124;28;24459;-73
2022/10/08 06:26:35;;;;;;;6.30;4.18;;;;;;;11.43;100.00;96205.19;5049453;28;24438;-73
2022/10/08 06:29:04;;;;;;;9.90;4.13;;;;;;;11.53;100.00;96206.34;5049658;28;24428;-73
2022/10/08 06:31:30;;;;;;;9.23;4.50;;;;;;;11.54;100.00;96212.34;5054555;28;24501;-73
2022/10/08 06:33:57;;;;;;;6.32;4.15;;;;;;;11.66;100.00;96209.00;5051444;28;24521;-73
2022/10/08 06:36:27;;;;;;;10.18;4.07;;;;;;;11.74;100.00;96216.34;5049423;28;24466;-73
2022/10/08 06:38:56;;;;;;;6.68;3.92;;;;;;;11.85;100.00;96211.34;5049967;28;24446;-73
2022/10/08 06:41:23;;;;;;;9.88;3.53;;;;;;;11.81;100.00;96223.66;5052517;28;24427;-73
2022/10/08 06:43:51;;;;;;;6.90;3.83;;;;;;;11.98;100.00;96225.28;5049209;28;24634;-73
2022/10/08 06:46:18;;;;;;;7.97;3.40;;;;;;;12.02;100.00;96231.09;5045492;28;24435;-73
2022/10/08 06:48:45;;;;;;;7.18;4.50;;;;;;;12.08;100.00;96231.53;5049806;28;24438;-73
2022/10/08 06:51:14;;;;;;;7.32;4.45;;;;;;;12.06;100.00;96230.81;5049358;28;24435;-73
2022/10/08 06:53:41;;;;;;;15.85;4.28;;;;;;;12.06;100.00;96232.59;5049081;28;24438;-73
2022/10/08 06:56:11;;;;;;;10.20;4.80;;;;;;;12.00;100.00;96233.78;5048937;28;24968;-73
2022/10/08 06:58:38;;;;;;;9.95;5.47;;;;;;;11.96;100.00;96229.72;5049308;28;24894;-73
2022/10/08 07:01:07;;;;;;;7.00;4.97;;;;;;;11.92;100.00;96240.38;5049159;28;24797;-73
2022/10/08 07:03:35;;;;;;;17.70;5.10;;;;;;;12.07;100.00;96237.69;5049032;28;24793;-73
2022/10/08 07:06:02;;;;;;;10.05;4.55;;;;;;;12.31;100.00;96242.28;5048845;28;24459;-73
2022/10/08 07:08:29;;;;;;;6.85;3.92;;;;;;;12.55;100.00;96235.56;5049371;28;25003;-73
2022/10/08 07:11:03;;;;;;;6.15;4.07;;;;;;;12.78;100.00;96238.44;5048927;28;24434;-72
2022/10/08 07:13:29;;;;;;;8.27;3.97;;;;;;;12.90;100.00;96242.84;5041307;28;24436;-73
2022/10/08 07:16:01;;;;;;;11.48;4.00;;;;;;;13.06;100.00;96248.75;5049815;28;24534;-73
2022/10/08 07:18:29;;;;;;;7.25;4.30;;;;;;;13.41;100.00;96255.19;5041163;28;24972;-73
2022/10/08 07:20:56;;;;;;;7.78;3.72;;;;;;;13.42;100.00;96262.91;5049030;28;24446;-73
2022/10/08 07:23:22;;;;;;;10.05;4.22;;;;;;;13.44;100.00;96271.44;5048808;28;25006;-70
2022/10/08 07:25:56;;;;;;;5.32;3.50;;;;;;;13.55;100.00;96273.34;5048416;28;24448;-73
2022/10/08 07:28:23;;;;;;;6.43;3.78;;;;;;;13.69;100.00;96269.81;5049024;28;24431;-73
2022/10/08 07:30:49;;;;;;;7.45;3.47;;;;;;;14.00;100.00;96286.78;5048657;28;24999;-73
2022/10/08 07:33:16;;;;;;;14.70;3.25;;;;;;;13.90;100.00;96272.72;5049036;28;24446;-73
2022/10/08 07:35:44;;;;;;;7.40;2.70;;;;;;;13.83;100.00;96282.75;5049571;28;25008;-73
2022/10/08 07:38:10;;;;;;;5.30;2.53;;;;;;;13.88;100.00;96280.66;5050965;28;24442;-73
2022/10/08 07:40:37;;;;;;;11.10;2.90;;;;;;;14.00;100.00;96286.78;5050338;28;24434;-72
2022/10/08 07:43:04;;;;;;;6.10;2.42;;;;;;;14.14;100.00;96304.91;5063221;28;24443;-73
2022/10/08 07:45:30;;;;;;;9.93;2.92;;;;;;;13.66;100.00;96299.47;5052541;28;24542;-70
2022/10/08 07:47:57;;;;;;;7.45;2.67;;;;;;;13.64;100.00;96297.91;5049050;28;24466;-71
2022/10/08 07:50:24;;;;;;;9.60;2.67;;;;;;;13.42;100.00;96303.69;5052664;28;24485;-73
2022/10/08 07:52:52;;;;;;;6.40;2.60;;;;;;;13.55;100.00;96302.78;5052663;28;24852;-73
2022/10/08 07:55:18;;;;;;;9.77;2.47;;;;;;;13.43;100.00;96302.78;5051984;28;24439;-73
2022/10/08 07:57:45;;;;;;;7.65;2.58;;;;;;;13.49;100.00;96310.16;5052916;28;24427;-73
2022/10/08 08:00:12;;;;;;;6.95;2.50;;;;;;;13.36;100.00;96304.09;5052512;28;24454;-72
2022/10/08 08:02:39;;;;;;;9.82;2.75;;;;;;;13.36;100.00;96307.53;5052588;28;24445;-73
2022/10/08 08:05:06;;;;;;;10.13;2.63;;;;;;;13.36;100.00;96310.13;5053585;28;24447;-72
2022/10/08 08:07:33;;;;;;;4.25;2.10;;;;;;;13.45;100.00;96304.31;5052682;28;24977;-73
2022/10/08 08:10:00;;;;;;;10.57;2.50;;;;;;;13.60;100.00;96312.88;5052266;28;25000;-73
2022/10/08 08:12:27;;;;;;;4.47;2.23;;;;;;;13.49;100.00;96312.75;5049523;28;24498;-73
2022/10/08 08:14:53;;;;;;;10.57;2.88;;;;;;;13.69;100.00;96309.69;5051626;28;25007;-73
2022/10/08 08:17:20;;;;;;;9.23;2.83;;;;;;;14.01;100.00;96317.91;5057926;28;24438;-73
2022/10/08 08:19:46;;;;;;;7.43;2.03;;;;;;;14.43;100.00;96313.34;5052104;28;24439;-73
2022/10/08 08:22:13;;;;;;;7.38;2.28;;;;;;;14.28;100.00;96319.59;5057959;28;24442;-73
2022/10/08 08:24:39;;;;;;;10.17;2.40;;;;;;;14.13;100.00;96324.09;5051326;28;25015;-73
2022/10/08 08:27:07;;;;;;;8.27;2.60;;;;;;;14.14;100.00;96323.16;5057807;28;24437;-72
2022/10/08 08:29:34;;;;;;;8.13;2.50;;;;;;;14.19;100.00;96322.81;5052150;28;24538;-73
2022/10/08 08:32:00;;;;;;;8.60;2.47;;;;;;;14.20;99.99;96324.47;5052305;28;24520;-73
2022/10/08 08:34:27;;;;;;;7.20;2.20;;;;;;;14.23;100.00;96322.50;5043094;28;24438;-73
2022/10/08 08:36:54;;;;;;;8.80;2.35;;;;;;;14.20;98.15;96322.75;5057984;28;24433;-73
2022/10/08 08:39:22;;;;;;;12.50;2.40;;;;;;;14.25;99.95;96320.63;5051917;28;24438;-73
2022/10/08 08:42:12;;;;;;;9.80;2.25;;;;;;;14.27;99.64;96316.13;5052007;28;24442;-72
2022/10/08 08:44:40;;;;;;;7.27;2.43;;;;;;;14.19;97.44;96317.63;5063181;22;24572;-75
2022/10/08 08:47:13;;;;;;;7.45;2.53;;;;;;;13.90;97.32;96324.78;5043457;28;24426;-76
2022/10/08 08:49:42;;;;;;;9.88;2.63;;;;;;;13.89;96.40;96325.75;5046819;28;24458;-76
2022/10/08 08:52:13;;;;;;;11.68;2.30;;;;;;;14.10;95.23;96320.88;5049433;28;24443;-76
2022/10/08 08:54:39;;;;;;;9.00;2.22;;;;;;;13.95;94.46;96315.75;5042731;28;24788;-76
2022/10/08 08:57:25;;;;;;;8.85;2.58;;;;;;;14.10;95.30;96320.88;5042956;28;24431;-76
2022/10/08 08:59:55;;;;;;;7.90;2.17;;;;;;;14.43;94.29;96326.38;5043384;28;24431;-76
2022/10/08 09:02:26;;;;;;;7.72;2.63;;;;;;;14.37;90.96;96333.75;5042499;28;24427;-76
2022/10/08 09:04:57;;;;;;;11.70;2.70;;;;;;;14.21;89.83;96332.22;5042538;28;24462;-76
2022/10/08 09:07:27;;;;;;;12.85;2.40;;;;;;;14.32;91.99;96331.47;5042327;28;24501;-76
2022/10/08 09:09:57;;;;;;;11.57;3.23;;;;;;;14.45;92.45;96327.06;5042764;28;24785;-76
2022/10/08 09:12:33;;;;;;;10.40;2.55;;;;;;;14.48;92.23;96337.28;5041884;28;24847;-76
2022/10/08 09:15:01;;;;;;;12.77;2.55;;;;;;;14.81;92.25;96327.25;5042504;28;24427;-76
2022/10/08 09:17:30;;;;;;;6.93;2.38;;;;;;;14.66;89.50;96327.38;5041255;28;24427;-76
2022/10/08 09:19:57;;;;;;;10.73;2.72;;;;;;;14.45;90.23;96334.88;5042823;28;24480;-76
2022/10/08 09:22:26;;;;;;;8.63;1.88;;;;;;;14.67;92.03;96336.88;5041569;28;24442;-76
2022/10/08 09:24:58;;;;;;;9.50;2.17;;;;;;;14.67;88.47;96331.66;5042194;28;24471;-76
2022/10/08 09:27:43;;;;;;;8.65;2.90;;;;;;;14.81;87.98;96337.69;5041450;28;24438;-76
2022/10/08 09:30:27;;;;;;;7.93;2.20;;;;;;;14.77;87.87;96343.13;5041490;28;24797;-76
2022/10/08 09:32:56;;;;;;;15.10;2.63;;;;;;;14.85;88.36;96350.38;5040906;28;24439;-76
2022/10/08 09:35:23;;;;;;;9.52;2.40;;;;;;;14.81;86.92;96342.91;5039097;28;24435;-76
2022/10/08 09:37:51;;;;;;;11.52;2.45;;;;;;;14.81;84.66;96342.91;5045022;28;24434;-76
2022/10/08 09:40:21;;;;;;;9.50;2.70;;;;;;;15.16;88.55;96353.41;5040179;28;24435;-76
2022/10/08 09:45:44;;;;;;;8.40;2.03;;;;;;;15.15;87.75;96357.81;5110066;27;24954;-76
2022/10/08 09:48:22;;;;;;;6.88;2.17;;;;;;;14.79;87.56;96347.38;5119871;28;24432;-75
2022/10/08 09:50:53;;;;;;;14.00;2.70;;;;;;;14.91;85.10;96349.13;5115100;28;24437;-75
2022/10/08 09:53:21;;;;;;;8.82;2.50;;;;;;;15.09;83.62;96358.28;5121585;28;24433;-76
2022/10/08 09:55:55;;;;;;;7.45;2.20;;;;;;;14.98;85.41;96355.56;5100159;28;24450;-75
2022/10/08 09:58:22;;;;;;;8.43;2.58;;;;;;;15.05;84.21;96356.78;5121601;28;24442;-76
2022/10/08 10:01:00;;;;;;;8.43;2.40;;;;;;;15.14;81.97;96363.97;5109738;28;24463;-75
2022/10/08 10:03:28;;;;;;;8.67;2.30;;;;;;;15.25;79.77;96365.81;5111778;28;24528;-76
2022/10/08 10:05:57;;;;;;;6.78;2.20;;;;;;;15.41;81.35;96365.53;5121462;28;24440;-76
2022/10/08 10:08:53;;;;;;;8.63;2.75;;;;;;;14.97;81.69;96359.13;5108800;27;24524;-75
2022/10/08 10:11:28;;;;;;;10.27;2.38;;;;;;;15.03;78.26;96356.09;5121263;28;24437;-75
2022/10/08 10:13:57;;;;;;;7.25;2.20;;;;;;;15.09;80.54;96363.47;5114076;28;24963;-75
2022/10/08 10:16:32;;;;;;;7.10;2.60;;;;;;;15.48;80.33;96366.75;5121685;28;24430;-75
2022/10/08 10:19:03;;;;;;;6.47;2.08;;;;;;;15.45;78.85;96373.03;5114828;28;24986;-76
2022/10/08 10:21:41;;;;;;;9.13;2.28;;;;;;;15.60;77.59;96378.91;5108024;28;24537;-76
2022/10/08 10:24:29;;;;;;;8.75;2.75;;;;;;;15.60;78.57;96373.69;5112082;28;24464;-75
2022/10/08 10:27:05;;;;;;;15.77;2.80;;;;;;;15.44;77.02;96373.16;5118339;27;24441;-75
2022/10/08 10:29:43;;;;;;;8.95;2.55;;;;;;;15.50;75.63;96372.72;5097796;28;25017;-76
2022/10/08 10:32:17;;;;;;;6.43;2.57;;;;;;;15.30;78.89;96368.91;5115134;27;24433;-76
2022/10/08 10:34:50;;;;;;;9.83;2.73;;;;;;;15.00;78.34;96364.13;5105960;28;24449;-75
2022/10/08 10:37:24;;;;;;;7.55;2.42;;;;;;;15.19;80.29;96363.66;5116603;27;24457;-76
2022/10/08 10:39:57;;;;;;;9.65;2.42;;;;;;;15.34;77.82;96366.94;5117733;27;24432;-76
2022/10/08 10:42:31;;;;;;;7.80;2.85;;;;;;;15.33;80.17;96360.88;5117488;28;24994;-75
2022/10/08 10:45:15;;;;;;;9.10;2.63;;;;;;;15.35;78.49;96365.97;5129720;27;24449;-76
2022/10/08 10:47:43;;;;;;;10.15;3.17;;;;;;;15.19;78.33;96361.88;5129615;27;24440;-75
2022/10/08 10:50:13;;;;;;;14.13;2.60;;;;;;;15.37;78.91;96366.72;5136453;27;24448;-75
2022/10/08 10:52:50;;;;;;;10.55;2.65;;;;;;;15.30;78.09;96368.09;5132906;27;24429;-75
2022/10/08 10:55:22;;;;;;;11.30;2.60;;;;;;;15.32;78.46;96364.44;5123582;27;24439;-75
2022/10/08 10:58:22;;;;;;;8.60;3.22;;;;;;;15.24;79.95;96369.38;5111958;27;24987;-75
2022/10/08 11:01:01;;;;;;;9.73;2.90;;;;;;;15.52;78.43;96365.59;5119421;27;24806;-75
2022/10/08 11:03:41;;;;;;;8.23;2.25;;;;;;;15.32;77.36;96366.22;5105568;27;24438;-75
2022/10/08 11:06:27;;;;;;;7.03;2.30;;;;;;;15.45;75.64;96364.38;5116268;27;24974;-75
2022/10/08 11:09:00;;;;;;;9.60;2.28;;;;;;;15.50;77.61;96367.50;5123165;27;24450;-76
2022/10/08 11:11:35;;;;;;;7.53;2.00;;;;;;;14.99;77.82;96365.06;5120622;27;24448;-75
2022/10/08 11:14:13;;;;;;;7.60;2.50;;;;;;;14.99;75.48;96359.84;5127893;27;24779;-76
2022/10/08 11:16:50;;;;;;;7.93;2.37;;;;;;;14.89;78.54;96361.44;5124131;27;24436;-76
2022/10/08 11:19:35;;;;;;;7.75;2.28;;;;;;;14.86;79.85;96370.31;5128793;27;24432;-76
2022/10/08 11:22:08;;;;;;;9.98;2.30;;;;;;;14.70;79.08;96367.13;5120535;27;24429;-75
2022/10/08 11:24:46;;;;;;;8.60;2.40;;;;;;;14.77;80.31;96355.31;5119515;27;24460;-76
2022/10/08 11:27:22;;;;;;;9.50;2.42;;;;;;;14.76;79.61;96367.53;5119889;27;24428;-76
2022/10/08 11:29:55;;;;;;;7.50;2.50;;;;;;;14.91;80.43;96365.63;5124518;27;24982;-76
2022/10/08 11:32:22;;;;;;;8.70;2.72;;;;;;;14.73;80.07;96365.13;5123118;27;24795;-76
2022/10/08 11:34:56;;;;;;;8.32;2.67;;;;;;;14.64;80.54;96362.31;5123938;27;24430;-76
2022/10/08 11:37:27;;;;;;;7.70;2.15;;;;;;;14.83;80.05;96362.72;5123173;27;24513;-76
2022/10/08 11:40:02;;;;;;;8.68;2.38;;;;;;;14.72;79.87;96371.28;5122886;27;24429;-76
2022/10/08 11:42:35;;;;;;;8.90;2.40;;;;;;;14.87;80.22;96361.56;5109841;27;24429;-77